St François de Salles (73) - F

Date : 01/06/2013
Distance : 5,100 km

Place Nom Licence Catégorie Club Temps min/km CN à J-60 Points Différence Nouveau CN
1 BORNARD Julie 9402 D18 7305RA 1:06:40 13'04 4771 5482 +711 4890
2 GROSJEAN Cathy 23628 D40 6913RA 1:18:15 15'20 3754 4670 +916 3893
3 BONORA Marine 11542 D18 6906RA 1:22:47 16'13 3659 4415 +756 3936
4 BODY Mathilde 10184 D18 7305RA 1:23:47 16'25 5173 4362 -811 5135
5 PERRIN Odile 2731 D40 4201RA 1:23:53 16'26 5667 4357 -1310 5515
6 SMAGGHE Karine 2112 D40 3810RA 1:25:44 16'48 3980 4263 +283 3834
7 RIVOLLIER Isaline 22451 D18 4201RA 1:29:45 17'35 4242 4072 -170 4200
8 VALCHERA Claire 8648 D45 3810RA 1:30:48 17'48 4250 4025 -225 4200
9 HERITIER Veronique 24784 D45 4201RA 1:32:02 18'02 3867 3971 +104 3662
10 VORWERK Caroline 25745 D40 4201RA 1:32:30 18'08 3236 3951 +715 3698
11 DECROIX Veronique 2819 D40 7407RA 1:39:12 19'27 4200 3684 -516 4195
12 BONORA Beatrice 243 D45 6906RA 1:39:39 19'32 4302 3667 -635 4281
13 TRONCHON Valery 20798 H40 6906RA 1:42:10 20'01 3975 3577 -398 3679
14 ROCHE Sandrine 10684 D40 6911RA 1:47:36 21'05 3749 3396 -353 3785
15 BERRARD Marianne 18130 D45 2607RA 1:48:38 21'18 3836 3364 -472 3548
16 VINCENT Remi 23876 H21 3801RA 1:50:13 21'36 4514 3316 -1198 4608
17 GONET Janick 21046 D40 2607RA 1:55:14 22'35 4065 3171 -894 3994
18 BLANC JOUVAN Florence 12007 D45 3810RA 1:58:49 23'17 3569 3076 -493 3066
19 MERAT Catherine 6489 D45 3913FC 2:01:16 23'46 0 3014 0
20 DENTON Genevieve 15 D45 4204RA 2:04:10 24'20 3031 2943 -88 2848
21 GENNARO Beatrice 20862 D40 3811RA 2:16:14 26'42 3265 2683 -582 3339
22 NEUTENS Angélique 23180 D40 7404RA 2:41:48 31'43 2868 2259 -609 0
23 TIRAVY Laurence 23221 D40 6906RA 2:47:44 32'53 2466 2179 -287 2390
24 BAYLE Odile 12359 D45 7404RA 2:56:01 34'30 3008 2076 -932 2198
BASSET Fiona 23384 D18 6911RA pm None 4643 0 4789
CALANDRY Lucia 9352 D45 7404RA pm None 3639 0 3212
GRATIEN Nathalie 10283 D45 7403RA pm None 3092 0 3134
ROIG Carmen 10518 D45 3809RA pm None 1804 0 1963